createdAt,value
2023-03-08T00:01:34.970Z,27.60
2023-03-08T00:04:04.720Z,26.90
2023-03-08T00:06:33.269Z,25.90
2023-03-08T00:09:06.351Z,29.20
2023-03-08T00:11:34.739Z,27.10
2023-03-08T00:14:03.828Z,30.80
2023-03-08T00:16:32.211Z,31.60
2023-03-08T00:19:00.593Z,30.70
2023-03-08T00:21:30.009Z,22.10
2023-03-08T00:24:00.113Z,28.40
2023-03-08T00:26:28.494Z,29.50
2023-03-08T00:28:57.123Z,31.50
2023-03-08T00:31:26.769Z,32.00
2023-03-08T00:33:55.602Z,33.00
2023-03-08T00:36:26.135Z,32.00
2023-03-08T00:38:56.541Z,33.10
2023-03-08T00:41:24.815Z,29.90
2023-03-08T00:43:54.219Z,33.40
2023-03-08T00:46:22.727Z,31.40
2023-03-08T00:48:55.077Z,30.40
2023-03-08T00:51:23.764Z,27.80
2023-03-08T00:53:54.296Z,30.00
2023-03-08T00:56:22.873Z,30.70
2023-03-08T00:58:52.152Z,24.40
2023-03-08T01:01:20.891Z,30.80
2023-03-08T01:03:51.442Z,28.70
2023-03-08T01:06:20.533Z,31.30
2023-03-08T01:11:26.224Z,29.90
2023-03-08T01:13:54.738Z,30.10
2023-03-08T01:16:28.125Z,28.00
2023-03-08T01:18:58.670Z,27.80
2023-03-08T01:21:28.325Z,30.50
2023-03-08T01:23:57.066Z,29.80
2023-03-08T01:26:26.490Z,28.60
2023-03-08T01:28:58.332Z,31.20
2023-03-08T01:31:28.718Z,30.10
2023-03-08T01:33:58.161Z,31.90
2023-03-08T01:36:27.886Z,28.60
2023-03-08T01:38:56.670Z,29.30
2023-03-08T01:41:27.223Z,28.80
2023-03-08T01:43:58.336Z,28.50
2023-03-08T01:46:36.758Z,23.30
2023-03-08T01:49:28.276Z,30.00
2023-03-08T01:52:12.024Z,28.30
2023-03-08T01:54:43.888Z,28.70
2023-03-08T01:57:26.081Z,21.40
2023-03-08T02:00:04.600Z,26.40
2023-03-08T02:02:58.680Z,28.30
2023-03-08T02:05:27.572Z,26.50
2023-03-08T02:08:00.163Z,28.40
2023-03-08T02:10:32.526Z,29.90
2023-03-08T02:13:07.875Z,31.80
2023-03-08T02:15:39.219Z,29.80
2023-03-08T02:18:08.011Z,27.90
2023-03-08T02:20:40.901Z,30.20
2023-03-08T02:25:38.382Z,26.70
2023-03-08T02:28:10.139Z,28.80
2023-03-08T02:30:38.827Z,31.10
2023-03-08T02:33:07.930Z,32.10
2023-03-08T02:35:39.006Z,28.50
2023-03-08T02:38:07.440Z,30.30
2023-03-08T02:40:38.631Z,28.50
2023-03-08T02:43:07.178Z,28.20
2023-03-08T02:45:36.992Z,28.60
2023-03-08T02:48:06.419Z,29.80
2023-03-08T02:50:36.829Z,29.90
2023-03-08T02:53:05.410Z,27.30
2023-03-08T02:55:37.483Z,30.30
2023-03-08T02:58:10.486Z,29.10
2023-03-08T03:00:39.162Z,28.00
2023-03-08T03:05:43.809Z,28.30
2023-03-08T03:08:16.485Z,25.50
2023-03-08T03:10:46.019Z,27.60
2023-03-08T03:13:17.543Z,28.20
2023-03-08T03:15:46.053Z,29.80
2023-03-08T03:18:16.653Z,30.40
2023-03-08T03:20:45.145Z,26.10
2023-03-08T03:23:17.313Z,30.40
2023-03-08T03:25:50.722Z,26.40
2023-03-08T03:28:21.336Z,27.70
2023-03-08T03:30:52.058Z,28.70
2023-03-08T03:33:21.783Z,26.20
2023-03-08T03:35:54.684Z,26.40
2023-03-08T03:38:23.867Z,29.10
2023-03-08T03:41:22.882Z,30.50
2023-03-08T03:43:54.752Z,27.40
2023-03-08T03:46:27.669Z,25.70
2023-03-08T03:48:57.263Z,26.90
2023-03-08T03:51:27.152Z,25.70
2023-03-08T03:54:07.286Z,27.80
2023-03-08T03:56:36.175Z,30.90
2023-03-08T03:59:04.788Z,26.60
2023-03-08T04:01:40.740Z,28.40
2023-03-08T04:04:23.257Z,28.60
2023-03-08T04:06:53.583Z,24.80
2023-03-08T04:09:25.474Z,29.50
2023-03-08T04:12:08.364Z,26.40
2023-03-08T04:14:37.464Z,36.10
2023-03-08T04:17:07.584Z,28.60
2023-03-08T04:19:55.421Z,27.40
2023-03-08T04:22:26.362Z,24.80
2023-03-08T04:24:58.733Z,29.10
2023-03-08T04:27:35.925Z,27.40
2023-03-08T04:30:05.225Z,27.40
2023-03-08T04:35:04.242Z,26.20
2023-03-08T04:37:33.538Z,26.30
2023-03-08T04:40:10.740Z,25.30
2023-03-08T04:42:47.506Z,26.20
2023-03-08T04:45:17.827Z,25.50
2023-03-08T04:47:46.619Z,25.90
2023-03-08T04:50:15.925Z,27.60
2023-03-08T04:52:44.614Z,26.60
2023-03-08T04:55:13.604Z,29.00
2023-03-08T04:57:43.226Z,18.70
2023-03-08T05:00:12.784Z,29.40
2023-03-08T05:02:43.212Z,27.20
2023-03-08T05:05:15.259Z,26.70
2023-03-08T05:07:44.416Z,24.60
2023-03-08T05:10:14.434Z,26.40
2023-03-08T05:12:44.148Z,29.30
2023-03-08T05:15:12.834Z,24.80
2023-03-08T05:17:42.955Z,26.30
2023-03-08T05:20:16.607Z,24.10
2023-03-08T05:22:58.298Z,27.30
2023-03-08T05:26:11.976Z,26.70
2023-03-08T05:28:44.683Z,30.00
2023-03-08T05:31:13.613Z,25.70
2023-03-08T05:36:12.786Z,32.70
2023-03-08T05:38:41.684Z,31.90
2023-03-08T05:41:15.041Z,21.70
2023-03-08T05:43:46.429Z,33.30
2023-03-08T05:46:16.931Z,27.70
2023-03-08T05:48:45.651Z,27.40
2023-03-08T05:51:16.966Z,31.20
2023-03-08T05:53:46.096Z,27.00
2023-03-08T05:56:18.105Z,30.20
2023-03-08T05:58:52.589Z,33.60
2023-03-08T06:01:23.732Z,26.90
2023-03-08T06:03:56.305Z,28.50
2023-03-08T06:06:26.629Z,27.40
2023-03-08T06:11:31.071Z,31.60
2023-03-08T06:14:00.577Z,28.60
2023-03-08T06:16:31.293Z,31.90
2023-03-08T06:19:01.979Z,29.80
2023-03-08T06:21:31.253Z,26.90
2023-03-08T06:24:04.658Z,25.90
2023-03-08T06:26:33.441Z,30.00
2023-03-08T06:29:02.435Z,26.50
2023-03-08T06:31:32.559Z,25.40
2023-03-08T06:34:01.864Z,27.80
2023-03-08T06:36:33.623Z,31.30
2023-03-08T06:39:02.517Z,27.90
2023-03-08T06:41:33.149Z,29.80
2023-03-08T06:44:02.250Z,30.70
2023-03-08T06:46:31.039Z,27.40
2023-03-08T06:49:00.136Z,26.90
2023-03-08T06:51:30.054Z,27.60
2023-03-08T06:54:05.435Z,28.40
2023-03-08T06:56:35.379Z,26.80
2023-03-08T06:59:03.804Z,27.30
2023-03-08T07:01:33.146Z,29.60
2023-03-08T07:04:01.638Z,28.40
2023-03-08T07:06:30.167Z,26.10
2023-03-08T07:09:00.801Z,31.10
2023-03-08T07:11:31.843Z,26.20
2023-03-08T07:16:29.931Z,19.60
2023-03-08T07:18:58.313Z,27.20
2023-03-08T07:21:26.900Z,26.80
2023-03-08T07:23:55.278Z,26.80
2023-03-08T07:26:23.764Z,25.60
2023-03-08T07:28:52.271Z,28.40
2023-03-08T07:31:20.834Z,24.30
2023-03-08T07:33:49.825Z,30.20
2023-03-08T07:36:18.618Z,27.90
2023-03-08T07:38:47.610Z,27.40
2023-03-08T07:41:19.473Z,25.70
2023-03-08T07:43:47.958Z,23.50
2023-03-08T07:46:24.652Z,22.70
2023-03-08T07:48:55.409Z,22.60
2023-03-08T07:51:24.530Z,25.10
2023-03-08T07:53:53.256Z,23.00
2023-03-08T07:56:21.640Z,24.80
2023-03-08T07:58:51.456Z,26.00
2023-03-08T08:01:20.348Z,26.20
2023-03-08T08:03:48.958Z,27.20
2023-03-08T08:06:17.518Z,27.50
2023-03-08T08:08:46.101Z,24.90
2023-03-08T08:11:16.667Z,26.50
2023-03-08T08:13:49.514Z,28.90
2023-03-08T08:16:18.553Z,28.40
2023-03-08T08:18:47.196Z,28.00
2023-03-08T08:21:15.983Z,23.00
2023-03-08T08:23:44.769Z,23.00
2023-03-08T08:26:18.118Z,22.60
2023-03-08T08:28:48.035Z,24.10
2023-03-08T08:31:19.594Z,20.30
2023-03-08T08:33:49.663Z,22.70
2023-03-08T08:36:19.604Z,25.50
2023-03-08T08:38:49.797Z,22.90
2023-03-08T08:41:19.434Z,47.00
2023-03-08T08:43:47.991Z,30.70
2023-03-08T08:46:16.680Z,22.80
2023-03-08T08:48:47.214Z,30.60
2023-03-08T08:51:16.112Z,23.90
2023-03-08T08:53:44.686Z,26.60
2023-03-08T08:56:26.737Z,29.40
2023-03-08T08:58:57.656Z,24.00
2023-03-08T09:01:28.252Z,26.60
2023-03-08T09:04:17.382Z,31.60
2023-03-08T09:06:46.314Z,25.00
2023-03-08T09:09:16.229Z,35.60
2023-03-08T09:11:55.233Z,52.60
2023-03-08T09:14:26.027Z,36.10
2023-03-08T09:16:54.679Z,25.10
2023-03-08T09:19:23.384Z,31.80
2023-03-08T09:21:52.157Z,41.80
2023-03-08T09:24:21.152Z,35.20
2023-03-08T09:29:20.067Z,31.40
2023-03-08T09:31:48.526Z,24.60
2023-03-08T09:34:18.360Z,19.90
2023-03-08T09:36:47.764Z,21.30
2023-03-08T09:39:21.267Z,22.70
2023-03-08T09:41:59.373Z,42.10
2023-03-08T09:44:49.769Z,29.60
2023-03-08T09:47:40.523Z,23.80
2023-03-08T09:50:12.845Z,23.30
2023-03-08T09:53:00.478Z,42.20
2023-03-08T09:55:32.332Z,61.80
2023-03-08T09:58:03.991Z,55.60
2023-03-08T10:00:35.172Z,34.90
2023-03-08T10:04:02.033Z,27.20
2023-03-08T10:06:37.171Z,32.50
2023-03-08T10:09:34.687Z,29.20
2023-03-08T10:12:13.565Z,28.90
2023-03-08T10:14:54.500Z,29.40
2023-03-08T10:17:55.323Z,30.10
2023-03-08T10:20:28.515Z,30.50
2023-03-08T10:23:00.080Z,19.70
2023-03-08T10:25:34.152Z,26.20
2023-03-08T10:28:04.312Z,24.80
2023-03-08T10:30:35.569Z,20.20
2023-03-08T10:33:07.829Z,23.30
2023-03-08T10:35:38.569Z,28.00
2023-03-08T10:38:17.336Z,29.30
2023-03-08T10:40:46.487Z,32.20
2023-03-08T10:43:28.273Z,27.50
2023-03-08T10:46:02.199Z,40.00
2023-03-08T10:48:30.775Z,38.70
2023-03-08T10:51:04.905Z,32.40
2023-03-08T10:53:33.261Z,20.80
2023-03-08T10:56:21.412Z,51.20
2023-03-08T10:58:49.991Z,90.80
2023-03-08T11:01:29.850Z,76.20
2023-03-08T11:06:43.085Z,27.20
2023-03-08T11:09:38.403Z,31.50
2023-03-08T11:12:07.201Z,26.10
2023-03-08T11:14:36.058Z,16.90
2023-03-08T11:17:20.221Z,22.60
2023-03-08T11:20:18.712Z,20.30
2023-03-08T11:22:56.106Z,35.80
2023-03-08T11:25:39.952Z,28.00
2023-03-08T11:28:14.122Z,27.30
2023-03-08T11:30:55.152Z,28.20
2023-03-08T11:33:24.576Z,26.50
2023-03-08T11:36:05.137Z,21.20
2023-03-08T11:38:34.101Z,35.80
2023-03-08T11:41:21.426Z,37.00
2023-03-08T11:44:27.390Z,19.40
2023-03-08T11:47:03.959Z,20.20
2023-03-08T11:49:50.777Z,21.30
2023-03-08T11:52:35.332Z,17.80
2023-03-08T11:55:25.861Z,26.30
2023-03-08T11:57:58.105Z,20.70
2023-03-08T12:00:45.017Z,16.10
2023-03-08T12:03:25.405Z,14.80
2023-03-08T12:05:57.257Z,17.80
2023-03-08T12:08:48.322Z,14.30
2023-03-08T12:11:58.514Z,14.70
2023-03-08T12:14:31.518Z,15.50
2023-03-08T12:17:22.781Z,15.00
2023-03-08T12:19:51.619Z,17.50
2023-03-08T12:22:34.563Z,14.20
2023-03-08T12:25:25.419Z,18.40
2023-03-08T12:27:58.785Z,15.50
2023-03-08T12:30:40.740Z,17.50
2023-03-08T12:33:11.987Z,13.20
2023-03-08T12:35:51.212Z,13.30
2023-03-08T12:38:20.138Z,15.10
2023-03-08T12:40:50.103Z,16.90
2023-03-08T12:43:21.495Z,14.80
2023-03-08T12:45:59.455Z,13.90
2023-03-08T12:48:31.083Z,13.80
2023-03-08T12:51:11.830Z,14.60
2023-03-08T12:53:51.680Z,13.80
2023-03-08T12:56:35.157Z,14.90
2023-03-08T12:59:15.466Z,15.00
2023-03-08T13:01:45.310Z,12.00
2023-03-08T13:04:41.484Z,12.60
2023-03-08T13:07:16.090Z,15.80
2023-03-08T13:09:47.398Z,12.20
2023-03-08T13:12:17.108Z,11.30
2023-03-08T13:15:11.606Z,13.30
2023-03-08T13:17:52.788Z,15.40
2023-03-08T13:20:43.921Z,12.70
2023-03-08T13:23:15.416Z,12.90
2023-03-08T13:25:45.696Z,11.80
2023-03-08T13:28:21.988Z,12.50
2023-03-08T13:30:56.954Z,13.40
2023-03-08T13:33:33.966Z,13.10
2023-03-08T13:36:04.787Z,14.10
2023-03-08T13:38:36.021Z,13.20
2023-03-08T13:41:04.539Z,13.60
2023-03-08T13:46:06.631Z,14.70
2023-03-08T13:48:37.469Z,13.90
2023-03-08T13:51:06.355Z,14.40
2023-03-08T13:53:37.090Z,12.70
2023-03-08T13:56:06.395Z,13.20
2023-03-08T13:58:42.097Z,13.00
2023-03-08T14:01:15.533Z,12.80
2023-03-08T14:03:45.350Z,14.10
2023-03-08T14:06:21.836Z,11.90
2023-03-08T14:08:50.533Z,13.60
2023-03-08T14:11:22.289Z,15.20
2023-03-08T14:13:57.860Z,15.10
2023-03-08T14:16:31.886Z,14.60
2023-03-08T14:19:08.875Z,13.50
2023-03-08T14:21:48.825Z,12.60
2023-03-08T14:24:22.974Z,13.70
2023-03-08T14:27:05.414Z,16.90
2023-03-08T14:29:34.825Z,13.20
2023-03-08T14:32:13.043Z,14.30
2023-03-08T14:34:44.610Z,12.40
2023-03-08T14:39:44.403Z,13.60
2023-03-08T14:42:30.924Z,13.60
2023-03-08T14:45:16.815Z,13.10
2023-03-08T14:47:59.144Z,10.60
2023-03-08T14:50:32.183Z,10.90
2023-03-08T14:53:02.643Z,11.00
2023-03-08T14:55:40.239Z,11.40
2023-03-08T14:58:13.442Z,12.60
2023-03-08T15:00:54.514Z,11.00
2023-03-08T15:03:24.034Z,11.40
2023-03-08T15:05:53.172Z,14.00
2023-03-08T15:10:51.929Z,10.90
2023-03-08T15:13:23.112Z,11.90
2023-03-08T15:15:51.717Z,10.80
2023-03-08T15:18:21.166Z,10.70
2023-03-08T15:20:50.109Z,9.00
2023-03-08T15:23:31.360Z,12.10
2023-03-08T15:26:00.044Z,12.00
2023-03-08T15:28:28.821Z,12.90
2023-03-08T15:30:57.488Z,12.00
2023-03-08T15:33:25.998Z,10.90
2023-03-08T15:35:55.233Z,12.10
2023-03-08T15:38:25.006Z,11.40
2023-03-08T15:40:57.892Z,13.40
2023-03-08T15:43:26.685Z,11.80
2023-03-08T15:45:55.065Z,12.20
2023-03-08T15:48:23.752Z,13.90
2023-03-08T15:50:52.338Z,11.60
2023-03-08T15:53:34.577Z,12.40
2023-03-08T15:56:03.842Z,11.90
2023-03-08T15:58:39.538Z,11.90
2023-03-08T16:01:07.991Z,15.90
2023-03-08T16:03:36.566Z,14.20
2023-03-08T16:06:12.062Z,14.70
2023-03-08T16:08:41.334Z,15.00
2023-03-08T16:11:17.175Z,14.90
2023-03-08T16:13:48.914Z,15.00
2023-03-08T16:16:17.566Z,12.40
2023-03-08T16:18:49.055Z,12.80
2023-03-08T16:23:46.156Z,14.30
2023-03-08T16:26:17.372Z,13.90
2023-03-08T16:28:47.307Z,14.60
2023-03-08T16:31:15.883Z,15.40
2023-03-08T16:33:45.010Z,14.70
2023-03-08T16:36:13.532Z,17.90
2023-03-08T16:38:44.124Z,18.40
2023-03-08T16:41:14.300Z,25.60
2023-03-08T16:43:48.828Z,18.30
2023-03-08T16:46:20.529Z,16.70
2023-03-08T16:48:50.041Z,19.10
2023-03-08T16:51:20.276Z,15.80
2023-03-08T16:53:49.256Z,18.30
2023-03-08T16:56:27.539Z,17.30
2023-03-08T16:58:58.457Z,17.20
2023-03-08T17:01:27.245Z,15.70
2023-03-08T17:03:56.607Z,18.30
2023-03-08T17:06:27.163Z,17.50
2023-03-08T17:08:58.070Z,15.50
2023-03-08T17:11:28.093Z,16.30
2023-03-08T17:14:01.795Z,22.90
2023-03-08T17:16:35.911Z,32.40
2023-03-08T17:21:38.561Z,26.70
2023-03-08T17:24:13.240Z,29.20
2023-03-08T17:26:46.441Z,28.10
2023-03-08T17:29:14.927Z,20.00
2023-03-08T17:31:43.711Z,21.10
2023-03-08T17:34:12.192Z,35.90
2023-03-08T17:36:40.719Z,26.00
2023-03-08T17:39:09.364Z,25.10
2023-03-08T17:43:53.337Z,24.70
2023-03-08T17:46:23.930Z,23.80
2023-03-08T17:48:53.980Z,28.50
2023-03-08T17:51:24.468Z,23.30
2023-03-08T17:53:53.221Z,20.50
2023-03-08T17:56:25.467Z,21.40
2023-03-08T17:58:54.872Z,16.90
2023-03-08T18:01:25.854Z,17.60
2023-03-08T18:03:55.653Z,19.10
2023-03-08T18:06:35.171Z,17.20
2023-03-08T18:09:06.218Z,21.00
2023-03-08T18:11:37.962Z,19.60
2023-03-08T18:14:10.869Z,20.90
2023-03-08T18:16:39.552Z,23.80
2023-03-08T18:19:13.459Z,31.60
2023-03-08T18:21:41.905Z,22.10
2023-03-08T18:24:13.197Z,17.40
2023-03-08T18:26:41.615Z,16.30
2023-03-08T18:29:10.255Z,19.20
2023-03-08T18:34:09.584Z,19.90
2023-03-08T18:36:38.165Z,15.20
2023-03-08T18:39:08.306Z,15.90
2023-03-08T18:41:36.755Z,19.10
2023-03-08T18:44:11.813Z,18.10
2023-03-08T18:46:40.254Z,17.80
2023-03-08T18:49:11.486Z,16.60
2023-03-08T18:51:40.746Z,15.30
2023-03-08T18:54:20.798Z,14.50
2023-03-08T18:56:50.192Z,17.70
2023-03-08T18:59:18.658Z,17.60
2023-03-08T19:01:47.397Z,18.20
2023-03-08T19:04:16.755Z,16.90
2023-03-08T19:06:45.026Z,18.50
2023-03-08T19:09:15.962Z,16.50
2023-03-08T19:11:45.955Z,19.40
2023-03-08T19:14:14.933Z,18.70
2023-03-08T19:16:44.369Z,18.20
2023-03-08T19:19:14.678Z,16.40
2023-03-08T19:21:46.900Z,19.90
2023-03-08T19:24:17.112Z,16.60
2023-03-08T19:26:49.168Z,20.60
2023-03-08T19:29:22.370Z,20.70
2023-03-08T19:31:55.976Z,17.10
2023-03-08T19:34:26.656Z,17.80
2023-03-08T19:36:55.592Z,19.50
2023-03-08T19:39:27.244Z,19.30
2023-03-08T19:42:01.409Z,19.90
2023-03-08T19:44:31.482Z,19.60
2023-03-08T19:47:02.218Z,20.10
2023-03-08T19:49:32.860Z,21.00
2023-03-08T19:52:03.254Z,18.60
2023-03-08T19:54:32.478Z,19.90
2023-03-08T19:57:01.367Z,18.70
2023-03-08T19:59:31.902Z,18.20
2023-03-08T20:02:01.305Z,13.90
2023-03-08T20:04:30.205Z,15.80
2023-03-08T20:07:02.055Z,20.70
2023-03-08T20:09:31.667Z,19.20
2023-03-08T20:12:00.762Z,22.70
2023-03-08T20:14:31.216Z,21.80
2023-03-08T20:17:01.662Z,22.60
2023-03-08T20:19:36.965Z,27.00
2023-03-08T20:22:05.430Z,24.90
2023-03-08T20:24:35.261Z,27.10
2023-03-08T20:27:04.868Z,21.40
2023-03-08T20:29:34.786Z,25.90
2023-03-08T20:32:03.578Z,23.40
2023-03-08T20:34:32.894Z,28.20
2023-03-08T20:37:03.005Z,26.00
2023-03-08T20:39:32.616Z,25.80
2023-03-08T20:42:01.185Z,25.30
2023-03-08T20:44:29.875Z,22.70
2023-03-08T20:46:58.250Z,20.10
2023-03-08T20:49:28.476Z,21.90
2023-03-08T20:51:57.268Z,18.50
2023-03-08T20:54:32.608Z,21.70
2023-03-08T20:57:01.299Z,22.80
2023-03-08T20:59:29.986Z,20.90
2023-03-08T21:01:59.394Z,25.00
2023-03-08T21:04:27.891Z,22.70
2023-03-08T21:07:01.403Z,21.80
2023-03-08T21:09:30.366Z,21.80
2023-03-08T21:11:58.949Z,20.60
2023-03-08T21:14:29.280Z,20.10
2023-03-08T21:16:57.860Z,18.80
2023-03-08T21:19:26.242Z,21.50
2023-03-08T21:21:56.868Z,22.40
2023-03-08T21:24:25.635Z,26.20
2023-03-08T21:26:54.453Z,23.30
2023-03-08T21:31:54.294Z,20.70
2023-03-08T21:34:23.481Z,20.90
2023-03-08T21:36:52.484Z,19.10
2023-03-08T21:39:20.961Z,19.80
2023-03-08T21:41:50.055Z,19.90
2023-03-08T21:44:19.583Z,14.30
2023-03-08T21:49:23.748Z,22.80
2023-03-08T21:51:57.308Z,20.60
2023-03-08T21:54:28.034Z,22.80
2023-03-08T21:56:57.031Z,21.20
2023-03-08T21:59:27.361Z,19.60
2023-03-08T22:01:58.662Z,18.90
2023-03-08T22:04:27.596Z,19.60
2023-03-08T22:06:56.304Z,21.40
2023-03-08T22:09:30.092Z,21.20
2023-03-08T22:12:00.110Z,21.90
2023-03-08T22:14:28.899Z,19.40
2023-03-08T22:17:01.068Z,24.10
2023-03-08T22:19:29.662Z,20.60
2023-03-08T22:21:59.068Z,22.00
2023-03-08T22:24:27.645Z,21.70
2023-03-08T22:27:03.615Z,20.90
2023-03-08T22:29:32.289Z,21.20
2023-03-08T22:32:01.299Z,20.70
2023-03-08T22:34:29.775Z,21.80
2023-03-08T22:36:58.152Z,23.20
2023-03-08T22:39:28.164Z,21.10
2023-03-08T22:41:57.783Z,21.40
2023-03-08T22:44:26.161Z,22.80
2023-03-08T22:46:58.330Z,21.10
2023-03-08T22:49:26.812Z,21.40
2023-03-08T22:51:55.209Z,21.50
2023-03-08T22:54:23.887Z,23.60
2023-03-08T22:56:52.365Z,25.80
2023-03-08T22:59:20.750Z,23.90
2023-03-08T23:01:49.409Z,28.10
2023-03-08T23:04:18.541Z,24.20
2023-03-08T23:06:48.076Z,24.40
2023-03-08T23:09:17.441Z,25.00
2023-03-08T23:11:45.821Z,18.40
2023-03-08T23:14:16.866Z,24.50
2023-03-08T23:16:48.177Z,24.10
2023-03-08T23:19:18.440Z,27.10
2023-03-08T23:24:36.090Z,21.70
2023-03-08T23:27:04.573Z,24.70
2023-03-08T23:29:34.384Z,23.80
2023-03-08T23:32:03.317Z,22.60
2023-03-08T23:34:32.483Z,23.60
2023-03-08T23:37:05.874Z,25.60
2023-03-08T23:39:37.530Z,24.80
2023-03-08T23:42:06.523Z,22.80
2023-03-08T23:44:37.988Z,24.20
2023-03-08T23:47:06.972Z,25.50
2023-03-08T23:49:37.910Z,22.20
2023-03-08T23:52:06.594Z,22.30
2023-03-08T23:54:36.107Z,28.10
2023-03-08T23:57:04.487Z,23.10
2023-03-08T23:59:32.879Z,22.60
